sensor_id;sensor_type;location;lat;lon;timestamp;P1;durP1;ratioP1;P2;durP2;ratioP2
44985;SDS011;30721;49.380;7.736;2023-11-19T00:01:26;0.22;;;0.20;;
44985;SDS011;30721;49.380;7.736;2023-11-19T00:03:51;0.20;;;0.20;;
44985;SDS011;30721;49.380;7.736;2023-11-19T00:06:17;0.30;;;0.30;;
44985;SDS011;30721;49.380;7.736;2023-11-19T00:08:42;0.47;;;0.38;;
44985;SDS011;30721;49.380;7.736;2023-11-19T00:11:08;0.47;;;0.30;;
44985;SDS011;30721;49.380;7.736;2023-11-19T00:13:34;0.45;;;0.40;;
44985;SDS011;30721;49.380;7.736;2023-11-19T00:15:59;1.38;;;0.32;;
44985;SDS011;30721;49.380;7.736;2023-11-19T00:18:25;1.17;;;0.32;;
44985;SDS011;30721;49.380;7.736;2023-11-19T00:20:50;0.40;;;0.30;;
44985;SDS011;30721;49.380;7.736;2023-11-19T00:23:16;0.22;;;0.20;;
44985;SDS011;30721;49.380;7.736;2023-11-19T00:25:41;0.30;;;0.30;;
44985;SDS011;30721;49.380;7.736;2023-11-19T00:28:07;0.30;;;0.30;;
44985;SDS011;30721;49.380;7.736;2023-11-19T00:30:37;1.58;;;0.30;;
44985;SDS011;30721;49.380;7.736;2023-11-19T00:33:03;0.30;;;0.20;;
44985;SDS011;30721;49.380;7.736;2023-11-19T00:35:28;0.40;;;0.40;;
44985;SDS011;30721;49.380;7.736;2023-11-19T00:37:54;0.25;;;0.25;;
44985;SDS011;30721;49.380;7.736;2023-11-19T00:40:19;0.28;;;0.28;;
44985;SDS011;30721;49.380;7.736;2023-11-19T00:42:47;0.20;;;0.20;;
44985;SDS011;30721;49.380;7.736;2023-11-19T00:45:13;1.17;;;0.20;;
44985;SDS011;30721;49.380;7.736;2023-11-19T00:47:39;0.20;;;0.20;;
44985;SDS011;30721;49.380;7.736;2023-11-19T00:50:05;0.20;;;0.20;;
44985;SDS011;30721;49.380;7.736;2023-11-19T00:52:31;0.22;;;0.22;;
44985;SDS011;30721;49.380;7.736;2023-11-19T00:54:56;0.22;;;0.22;;
44985;SDS011;30721;49.380;7.736;2023-11-19T00:57:22;0.60;;;0.40;;
44985;SDS011;30721;49.380;7.736;2023-11-19T00:59:48;0.20;;;0.20;;
44985;SDS011;30721;49.380;7.736;2023-11-19T01:02:13;1.92;;;0.25;;
44985;SDS011;30721;49.380;7.736;2023-11-19T01:04:39;1.02;;;0.20;;
44985;SDS011;30721;49.380;7.736;2023-11-19T01:07:04;0.20;;;0.20;;
44985;SDS011;30721;49.380;7.736;2023-11-19T01:09:34;0.30;;;0.28;;
44985;SDS011;30721;49.380;7.736;2023-11-19T01:12:00;0.30;;;0.22;;
44985;SDS011;30721;49.380;7.736;2023-11-19T01:14:26;0.30;;;0.30;;
44985;SDS011;30721;49.380;7.736;2023-11-19T01:16:51;0.43;;;0.30;;
44985;SDS011;30721;49.380;7.736;2023-11-19T01:19:18;1.00;;;0.40;;
44985;SDS011;30721;49.380;7.736;2023-11-19T01:21:44;0.95;;;0.22;;
44985;SDS011;30721;49.380;7.736;2023-11-19T01:24:10;0.50;;;0.30;;
44985;SDS011;30721;49.380;7.736;2023-11-19T01:26:38;0.55;;;0.30;;
44985;SDS011;30721;49.380;7.736;2023-11-19T01:29:03;0.40;;;0.40;;
44985;SDS011;30721;49.380;7.736;2023-11-19T01:31:30;0.30;;;0.30;;
44985;SDS011;30721;49.380;7.736;2023-11-19T01:33:57;0.95;;;0.20;;
44985;SDS011;30721;49.380;7.736;2023-11-19T01:36:22;0.40;;;0.30;;
44985;SDS011;30721;49.380;7.736;2023-11-19T01:38:48;0.28;;;0.28;;
44985;SDS011;30721;49.380;7.736;2023-11-19T01:41:13;0.52;;;0.30;;
44985;SDS011;30721;49.380;7.736;2023-11-19T01:43:39;0.30;;;0.30;;
44985;SDS011;30721;49.380;7.736;2023-11-19T01:46:07;0.30;;;0.28;;
44985;SDS011;30721;49.380;7.736;2023-11-19T01:48:37;0.40;;;0.32;;
44985;SDS011;30721;49.380;7.736;2023-11-19T01:51:05;0.30;;;0.30;;
44985;SDS011;30721;49.380;7.736;2023-11-19T01:53:32;0.40;;;0.40;;
44985;SDS011;30721;49.380;7.736;2023-11-19T01:55:59;0.30;;;0.30;;
44985;SDS011;30721;49.380;7.736;2023-11-19T01:58:25;0.47;;;0.40;;
44985;SDS011;30721;49.380;7.736;2023-11-19T02:00:50;0.60;;;0.40;;
44985;SDS011;30721;49.380;7.736;2023-11-19T02:03:15;0.52;;;0.40;;
44985;SDS011;30721;49.380;7.736;2023-11-19T02:05:41;0.40;;;0.40;;
44985;SDS011;30721;49.380;7.736;2023-11-19T02:08:07;0.65;;;0.50;;
44985;SDS011;30721;49.380;7.736;2023-11-19T02:10:33;0.80;;;0.57;;
44985;SDS011;30721;49.380;7.736;2023-11-19T02:12:58;0.40;;;0.30;;
44985;SDS011;30721;49.380;7.736;2023-11-19T02:15:24;0.50;;;0.50;;
44985;SDS011;30721;49.380;7.736;2023-11-19T02:17:53;0.38;;;0.38;;
44985;SDS011;30721;49.380;7.736;2023-11-19T02:20:18;0.40;;;0.30;;
44985;SDS011;30721;49.380;7.736;2023-11-19T02:22:45;0.40;;;0.40;;
44985;SDS011;30721;49.380;7.736;2023-11-19T02:25:15;0.32;;;0.32;;
44985;SDS011;30721;49.380;7.736;2023-11-19T02:27:54;0.40;;;0.40;;
44985;SDS011;30721;49.380;7.736;2023-11-19T02:30:21;0.30;;;0.30;;
44985;SDS011;30721;49.380;7.736;2023-11-19T02:32:55;0.63;;;0.52;;
44985;SDS011;30721;49.380;7.736;2023-11-19T02:35:25;0.68;;;0.60;;
44985;SDS011;30721;49.380;7.736;2023-11-19T02:37:51;0.60;;;0.60;;
44985;SDS011;30721;49.380;7.736;2023-11-19T02:40:16;0.50;;;0.50;;
44985;SDS011;30721;49.380;7.736;2023-11-19T02:42:53;0.68;;;0.60;;
44985;SDS011;30721;49.380;7.736;2023-11-19T02:45:20;0.70;;;0.70;;
44985;SDS011;30721;49.380;7.736;2023-11-19T02:47:47;0.50;;;0.50;;
44985;SDS011;30721;49.380;7.736;2023-11-19T02:50:12;0.80;;;0.50;;
44985;SDS011;30721;49.380;7.736;2023-11-19T02:52:41;0.52;;;0.52;;
44985;SDS011;30721;49.380;7.736;2023-11-19T02:55:07;0.60;;;0.60;;
44985;SDS011;30721;49.380;7.736;2023-11-19T02:57:41;2.08;;;0.60;;
44985;SDS011;30721;49.380;7.736;2023-11-19T03:00:19;0.55;;;0.50;;
44985;SDS011;30721;49.380;7.736;2023-11-19T03:03:02;0.40;;;0.40;;
44985;SDS011;30721;49.380;7.736;2023-11-19T03:05:43;0.55;;;0.50;;
44985;SDS011;30721;49.380;7.736;2023-11-19T03:08:09;1.08;;;0.52;;
44985;SDS011;30721;49.380;7.736;2023-11-19T03:10:35;0.47;;;0.47;;
44985;SDS011;30721;49.380;7.736;2023-11-19T03:13:01;0.50;;;0.50;;
44985;SDS011;30721;49.380;7.736;2023-11-19T03:15:28;0.73;;;0.40;;
44985;SDS011;30721;49.380;7.736;2023-11-19T03:17:53;1.13;;;0.73;;
44985;SDS011;30721;49.380;7.736;2023-11-19T03:20:19;0.80;;;0.80;;
44985;SDS011;30721;49.380;7.736;2023-11-19T03:22:46;0.90;;;0.65;;
44985;SDS011;30721;49.380;7.736;2023-11-19T03:25:11;1.70;;;0.80;;
44985;SDS011;30721;49.380;7.736;2023-11-19T03:27:38;1.23;;;1.10;;
44985;SDS011;30721;49.380;7.736;2023-11-19T03:30:07;0.75;;;0.75;;
44985;SDS011;30721;49.380;7.736;2023-11-19T03:32:34;1.40;;;1.30;;
44985;SDS011;30721;49.380;7.736;2023-11-19T03:35:00;1.30;;;1.20;;
44985;SDS011;30721;49.380;7.736;2023-11-19T03:37:26;2.05;;;1.42;;
44985;SDS011;30721;49.380;7.736;2023-11-19T03:39:53;1.58;;;1.27;;
44985;SDS011;30721;49.380;7.736;2023-11-19T03:42:20;1.83;;;1.73;;
44985;SDS011;30721;49.380;7.736;2023-11-19T03:45:06;1.95;;;1.75;;
44985;SDS011;30721;49.380;7.736;2023-11-19T03:47:35;2.53;;;1.98;;
44985;SDS011;30721;49.380;7.736;2023-11-19T03:50:01;7.18;;;2.30;;
44985;SDS011;30721;49.380;7.736;2023-11-19T03:52:27;2.88;;;2.55;;
44985;SDS011;30721;49.380;7.736;2023-11-19T03:54:54;3.03;;;2.72;;
44985;SDS011;30721;49.380;7.736;2023-11-19T03:57:20;5.13;;;3.25;;
44985;SDS011;30721;49.380;7.736;2023-11-19T03:59:46;5.80;;;3.50;;
44985;SDS011;30721;49.380;7.736;2023-11-19T04:02:11;4.00;;;3.60;;
44985;SDS011;30721;49.380;7.736;2023-11-19T04:04:36;10.25;;;3.55;;
44985;SDS011;30721;49.380;7.736;2023-11-19T04:07:03;8.73;;;4.07;;
44985;SDS011;30721;49.380;7.736;2023-11-19T04:09:29;38.63;;;5.88;;
44985;SDS011;30721;49.380;7.736;2023-11-19T04:11:55;16.60;;;4.40;;
44985;SDS011;30721;49.380;7.736;2023-11-19T04:14:21;5.20;;;3.78;;
44985;SDS011;30721;49.380;7.736;2023-11-19T04:16:46;12.82;;;4.40;;
44985;SDS011;30721;49.380;7.736;2023-11-19T04:19:12;17.55;;;5.15;;
44985;SDS011;30721;49.380;7.736;2023-11-19T04:21:40;7.97;;;4.20;;
44985;SDS011;30721;49.380;7.736;2023-11-19T04:24:07;8.38;;;3.70;;
44985;SDS011;30721;49.380;7.736;2023-11-19T04:26:33;3.70;;;3.20;;
44985;SDS011;30721;49.380;7.736;2023-11-19T04:28:59;17.92;;;4.53;;
44985;SDS011;30721;49.380;7.736;2023-11-19T04:31:28;6.70;;;3.67;;
44985;SDS011;30721;49.380;7.736;2023-11-19T04:33:54;6.38;;;3.72;;
44985;SDS011;30721;49.380;7.736;2023-11-19T04:36:20;30.98;;;5.68;;
44985;SDS011;30721;49.380;7.736;2023-11-19T04:38:49;8.70;;;3.70;;
44985;SDS011;30721;49.380;7.736;2023-11-19T04:41:14;4.95;;;3.72;;
44985;SDS011;30721;49.380;7.736;2023-11-19T04:43:39;11.43;;;4.40;;
44985;SDS011;30721;49.380;7.736;2023-11-19T04:46:05;4.57;;;3.25;;
44985;SDS011;30721;49.380;7.736;2023-11-19T04:48:30;5.90;;;3.85;;
44985;SDS011;30721;49.380;7.736;2023-11-19T04:50:56;3.97;;;3.58;;
44985;SDS011;30721;49.380;7.736;2023-11-19T04:53:21;5.50;;;3.35;;
44985;SDS011;30721;49.380;7.736;2023-11-19T04:55:46;4.95;;;3.65;;
44985;SDS011;30721;49.380;7.736;2023-11-19T04:58:12;3.55;;;3.20;;
44985;SDS011;30721;49.380;7.736;2023-11-19T05:00:38;4.07;;;3.40;;
44985;SDS011;30721;49.380;7.736;2023-11-19T05:03:03;4.47;;;3.42;;
44985;SDS011;30721;49.380;7.736;2023-11-19T05:05:29;4.22;;;3.38;;
44985;SDS011;30721;49.380;7.736;2023-11-19T05:07:54;3.75;;;3.35;;
44985;SDS011;30721;49.380;7.736;2023-11-19T05:10:20;4.15;;;3.65;;
44985;SDS011;30721;49.380;7.736;2023-11-19T05:12:45;5.55;;;4.40;;
44985;SDS011;30721;49.380;7.736;2023-11-19T05:15:11;4.85;;;4.38;;
44985;SDS011;30721;49.380;7.736;2023-11-19T05:17:37;5.75;;;4.00;;
44985;SDS011;30721;49.380;7.736;2023-11-19T05:20:04;4.75;;;4.25;;
44985;SDS011;30721;49.380;7.736;2023-11-19T05:22:30;4.60;;;4.07;;
44985;SDS011;30721;49.380;7.736;2023-11-19T05:24:55;5.00;;;4.50;;
44985;SDS011;30721;49.380;7.736;2023-11-19T05:27:21;5.45;;;4.60;;
44985;SDS011;30721;49.380;7.736;2023-11-19T05:29:47;4.40;;;3.92;;
44985;SDS011;30721;49.380;7.736;2023-11-19T05:32:12;4.65;;;3.95;;
44985;SDS011;30721;49.380;7.736;2023-11-19T05:34:37;4.72;;;4.32;;
44985;SDS011;30721;49.380;7.736;2023-11-19T05:37:03;4.20;;;3.80;;
44985;SDS011;30721;49.380;7.736;2023-11-19T05:39:30;8.95;;;4.18;;
44985;SDS011;30721;49.380;7.736;2023-11-19T05:41:56;3.80;;;3.40;;
44985;SDS011;30721;49.380;7.736;2023-11-19T05:44:21;5.93;;;3.70;;
44985;SDS011;30721;49.380;7.736;2023-11-19T05:46:46;4.22;;;3.40;;
44985;SDS011;30721;49.380;7.736;2023-11-19T05:49:12;3.80;;;3.40;;
44985;SDS011;30721;49.380;7.736;2023-11-19T05:51:38;3.78;;;3.28;;
44985;SDS011;30721;49.380;7.736;2023-11-19T05:54:06;2.60;;;2.40;;
44985;SDS011;30721;49.380;7.736;2023-11-19T05:56:32;3.25;;;2.90;;
44985;SDS011;30721;49.380;7.736;2023-11-19T05:58:58;3.75;;;2.60;;
44985;SDS011;30721;49.380;7.736;2023-11-19T06:01:26;2.70;;;2.42;;
44985;SDS011;30721;49.380;7.736;2023-11-19T06:03:51;2.95;;;2.60;;
44985;SDS011;30721;49.380;7.736;2023-11-19T06:06:17;3.22;;;2.53;;
44985;SDS011;30721;49.380;7.736;2023-11-19T06:08:42;3.60;;;2.45;;
44985;SDS011;30721;49.380;7.736;2023-11-19T06:11:09;3.03;;;2.40;;
44985;SDS011;30721;49.380;7.736;2023-11-19T06:13:39;2.05;;;1.95;;
44985;SDS011;30721;49.380;7.736;2023-11-19T06:16:05;2.30;;;2.08;;
44985;SDS011;30721;49.380;7.736;2023-11-19T06:18:30;2.25;;;1.63;;
44985;SDS011;30721;49.380;7.736;2023-11-19T06:20:56;2.83;;;1.80;;
44985;SDS011;30721;49.380;7.736;2023-11-19T06:23:21;2.20;;;1.77;;
44985;SDS011;30721;49.380;7.736;2023-11-19T06:25:47;2.70;;;2.05;;
44985;SDS011;30721;49.380;7.736;2023-11-19T06:28:12;2.22;;;1.73;;
44985;SDS011;30721;49.380;7.736;2023-11-19T06:30:41;3.90;;;2.00;;
44985;SDS011;30721;49.380;7.736;2023-11-19T06:33:06;2.42;;;1.80;;
44985;SDS011;30721;49.380;7.736;2023-11-19T06:35:32;3.33;;;1.95;;
44985;SDS011;30721;49.380;7.736;2023-11-19T06:38:04;3.28;;;1.95;;
44985;SDS011;30721;49.380;7.736;2023-11-19T06:40:30;4.22;;;2.72;;
44985;SDS011;30721;49.380;7.736;2023-11-19T06:42:55;3.33;;;2.10;;
44985;SDS011;30721;49.380;7.736;2023-11-19T06:45:21;2.60;;;2.20;;
44985;SDS011;30721;49.380;7.736;2023-11-19T06:47:47;4.03;;;2.10;;
44985;SDS011;30721;49.380;7.736;2023-11-19T06:50:12;4.85;;;1.63;;
44985;SDS011;30721;49.380;7.736;2023-11-19T06:52:37;2.22;;;1.95;;
44985;SDS011;30721;49.380;7.736;2023-11-19T06:55:03;2.08;;;1.90;;
44985;SDS011;30721;49.380;7.736;2023-11-19T06:57:29;3.42;;;2.13;;
44985;SDS011;30721;49.380;7.736;2023-11-19T06:59:57;2.25;;;2.05;;
44985;SDS011;30721;49.380;7.736;2023-11-19T07:02:22;2.13;;;1.73;;
44985;SDS011;30721;49.380;7.736;2023-11-19T07:04:48;2.65;;;1.75;;
44985;SDS011;30721;49.380;7.736;2023-11-19T07:07:13;1.48;;;1.30;;
44985;SDS011;30721;49.380;7.736;2023-11-19T07:09:40;2.22;;;1.35;;
44985;SDS011;30721;49.380;7.736;2023-11-19T07:12:05;1.10;;;0.98;;
44985;SDS011;30721;49.380;7.736;2023-11-19T07:14:31;1.30;;;0.85;;
44985;SDS011;30721;49.380;7.736;2023-11-19T07:16:56;0.80;;;0.70;;
44985;SDS011;30721;49.380;7.736;2023-11-19T07:19:22;1.00;;;0.90;;
44985;SDS011;30721;49.380;7.736;2023-11-19T07:21:47;1.15;;;1.02;;
44985;SDS011;30721;49.380;7.736;2023-11-19T07:24:13;1.70;;;1.40;;
44985;SDS011;30721;49.380;7.736;2023-11-19T07:26:45;1.65;;;1.55;;
44985;SDS011;30721;49.380;7.736;2023-11-19T07:29:12;3.20;;;1.52;;
44985;SDS011;30721;49.380;7.736;2023-11-19T07:31:42;3.63;;;1.92;;
44985;SDS011;30721;49.380;7.736;2023-11-19T07:34:09;2.05;;;1.80;;
44985;SDS011;30721;49.380;7.736;2023-11-19T07:36:35;2.92;;;2.10;;
44985;SDS011;30721;49.380;7.736;2023-11-19T07:39:01;2.30;;;1.70;;
44985;SDS011;30721;49.380;7.736;2023-11-19T07:41:26;3.80;;;2.00;;
44985;SDS011;30721;49.380;7.736;2023-11-19T07:43:52;3.30;;;2.00;;
44985;SDS011;30721;49.380;7.736;2023-11-19T07:46:17;4.82;;;2.05;;
44985;SDS011;30721;49.380;7.736;2023-11-19T07:48:45;2.55;;;1.98;;
44985;SDS011;30721;49.380;7.736;2023-11-19T07:51:14;2.90;;;2.00;;
44985;SDS011;30721;49.380;7.736;2023-11-19T07:53:40;3.90;;;1.85;;
44985;SDS011;30721;49.380;7.736;2023-11-19T07:56:06;4.70;;;2.33;;
44985;SDS011;30721;49.380;7.736;2023-11-19T07:58:32;3.58;;;2.60;;
44985;SDS011;30721;49.380;7.736;2023-11-19T08:00:57;3.28;;;2.30;;
44985;SDS011;30721;49.380;7.736;2023-11-19T08:03:23;2.55;;;1.77;;
44985;SDS011;30721;49.380;7.736;2023-11-19T08:05:48;3.78;;;2.30;;
44985;SDS011;30721;49.380;7.736;2023-11-19T08:08:14;3.35;;;2.22;;
44985;SDS011;30721;49.380;7.736;2023-11-19T08:10:39;4.57;;;2.70;;
44985;SDS011;30721;49.380;7.736;2023-11-19T08:13:05;3.72;;;2.47;;
44985;SDS011;30721;49.380;7.736;2023-11-19T08:15:31;3.00;;;2.45;;
44985;SDS011;30721;49.380;7.736;2023-11-19T08:17:57;4.15;;;2.35;;
44985;SDS011;30721;49.380;7.736;2023-11-19T08:20:22;3.33;;;2.50;;
44985;SDS011;30721;49.380;7.736;2023-11-19T08:22:48;3.22;;;2.30;;
44985;SDS011;30721;49.380;7.736;2023-11-19T08:25:14;4.05;;;2.25;;
44985;SDS011;30721;49.380;7.736;2023-11-19T08:27:39;2.83;;;2.53;;
44985;SDS011;30721;49.380;7.736;2023-11-19T08:30:06;6.05;;;2.60;;
44985;SDS011;30721;49.380;7.736;2023-11-19T08:32:32;3.85;;;2.53;;
44985;SDS011;30721;49.380;7.736;2023-11-19T08:34:57;4.00;;;2.40;;
44985;SDS011;30721;49.380;7.736;2023-11-19T08:37:23;3.70;;;2.40;;
44985;SDS011;30721;49.380;7.736;2023-11-19T08:39:48;2.97;;;2.78;;
44985;SDS011;30721;49.380;7.736;2023-11-19T08:42:17;2.78;;;1.90;;
44985;SDS011;30721;49.380;7.736;2023-11-19T08:44:43;2.92;;;2.25;;
44985;SDS011;30721;49.380;7.736;2023-11-19T08:47:12;3.80;;;2.28;;
44985;SDS011;30721;49.380;7.736;2023-11-19T08:49:38;5.18;;;2.80;;
44985;SDS011;30721;49.380;7.736;2023-11-19T08:52:04;3.97;;;2.25;;
44985;SDS011;30721;49.380;7.736;2023-11-19T08:54:30;3.22;;;2.00;;
44985;SDS011;30721;49.380;7.736;2023-11-19T08:56:55;4.00;;;2.28;;
44985;SDS011;30721;49.380;7.736;2023-11-19T08:59:20;3.42;;;2.67;;
44985;SDS011;30721;49.380;7.736;2023-11-19T09:01:46;2.85;;;2.63;;
44985;SDS011;30721;49.380;7.736;2023-11-19T09:04:11;2.83;;;2.35;;
44985;SDS011;30721;49.380;7.736;2023-11-19T09:06:36;2.35;;;2.00;;
44985;SDS011;30721;49.380;7.736;2023-11-19T09:09:02;2.70;;;2.13;;
44985;SDS011;30721;49.380;7.736;2023-11-19T09:11:28;2.25;;;1.98;;
44985;SDS011;30721;49.380;7.736;2023-11-19T09:13:54;3.15;;;2.28;;
44985;SDS011;30721;49.380;7.736;2023-11-19T09:16:19;3.92;;;2.25;;
44985;SDS011;30721;49.380;7.736;2023-11-19T09:18:45;2.35;;;2.15;;
44985;SDS011;30721;49.380;7.736;2023-11-19T09:21:10;3.10;;;2.33;;
44985;SDS011;30721;49.380;7.736;2023-11-19T09:23:36;3.75;;;2.20;;
44985;SDS011;30721;49.380;7.736;2023-11-19T09:26:13;2.83;;;1.92;;
44985;SDS011;30721;49.380;7.736;2023-11-19T09:28:38;2.72;;;2.38;;
44985;SDS011;30721;49.380;7.736;2023-11-19T09:31:12;2.92;;;2.03;;
44985;SDS011;30721;49.380;7.736;2023-11-19T09:33:38;2.58;;;1.40;;
44985;SDS011;30721;49.380;7.736;2023-11-19T09:36:03;4.15;;;1.92;;
44985;SDS011;30721;49.380;7.736;2023-11-19T09:38:29;3.33;;;1.90;;
44985;SDS011;30721;49.380;7.736;2023-11-19T09:40:54;2.72;;;1.80;;
44985;SDS011;30721;49.380;7.736;2023-11-19T09:43:20;1.90;;;1.80;;
44985;SDS011;30721;49.380;7.736;2023-11-19T09:45:49;2.83;;;1.77;;
44985;SDS011;30721;49.380;7.736;2023-11-19T09:48:18;3.13;;;1.40;;
44985;SDS011;30721;49.380;7.736;2023-11-19T09:50:47;1.95;;;1.60;;
44985;SDS011;30721;49.380;7.736;2023-11-19T09:53:16;3.67;;;2.08;;
44985;SDS011;30721;49.380;7.736;2023-11-19T09:55:42;6.30;;;1.75;;
44985;SDS011;30721;49.380;7.736;2023-11-19T09:58:08;3.25;;;2.13;;
44985;SDS011;30721;49.380;7.736;2023-11-19T10:00:34;4.80;;;1.83;;
44985;SDS011;30721;49.380;7.736;2023-11-19T10:02:59;3.97;;;1.42;;
44985;SDS011;30721;49.380;7.736;2023-11-19T10:05:25;4.13;;;1.77;;
44985;SDS011;30721;49.380;7.736;2023-11-19T10:07:51;4.40;;;2.20;;
44985;SDS011;30721;49.380;7.736;2023-11-19T10:10:17;2.15;;;1.40;;
44985;SDS011;30721;49.380;7.736;2023-11-19T10:12:47;2.45;;;1.33;;
44985;SDS011;30721;49.380;7.736;2023-11-19T10:15:35;2.03;;;1.20;;
44985;SDS011;30721;49.380;7.736;2023-11-19T10:18:01;1.92;;;1.58;;
44985;SDS011;30721;49.380;7.736;2023-11-19T10:20:26;2.58;;;1.20;;
44985;SDS011;30721;49.380;7.736;2023-11-19T10:22:55;2.65;;;1.77;;
44985;SDS011;30721;49.380;7.736;2023-11-19T10:25:21;5.95;;;5.20;;
44985;SDS011;30721;49.380;7.736;2023-11-19T10:27:48;7.03;;;5.78;;
44985;SDS011;30721;49.380;7.736;2023-11-19T10:30:17;4.70;;;3.40;;
44985;SDS011;30721;49.380;7.736;2023-11-19T10:32:45;2.53;;;1.75;;
44985;SDS011;30721;49.380;7.736;2023-11-19T10:35:11;3.70;;;3.40;;
44985;SDS011;30721;49.380;7.736;2023-11-19T10:37:38;1.70;;;1.50;;
44985;SDS011;30721;49.380;7.736;2023-11-19T10:40:04;2.45;;;1.25;;
44985;SDS011;30721;49.380;7.736;2023-11-19T10:42:30;3.63;;;1.77;;
44985;SDS011;30721;49.380;7.736;2023-11-19T10:44:56;1.90;;;1.70;;
44985;SDS011;30721;49.380;7.736;2023-11-19T10:47:22;4.97;;;4.25;;
44985;SDS011;30721;49.380;7.736;2023-11-19T10:49:48;3.88;;;2.03;;
44985;SDS011;30721;49.380;7.736;2023-11-19T10:52:16;3.17;;;1.50;;
44985;SDS011;30721;49.380;7.736;2023-11-19T10:54:44;3.55;;;1.50;;
44985;SDS011;30721;49.380;7.736;2023-11-19T10:57:15;1.92;;;1.10;;
44985;SDS011;30721;49.380;7.736;2023-11-19T10:59:45;3.53;;;1.95;;
44985;SDS011;30721;49.380;7.736;2023-11-19T11:02:11;2.25;;;1.25;;
44985;SDS011;30721;49.380;7.736;2023-11-19T11:04:39;1.77;;;1.00;;
44985;SDS011;30721;49.380;7.736;2023-11-19T11:07:07;3.75;;;1.80;;
44985;SDS011;30721;49.380;7.736;2023-11-19T11:09:32;2.63;;;1.67;;
44985;SDS011;30721;49.380;7.736;2023-11-19T11:11:58;3.20;;;1.85;;
44985;SDS011;30721;49.380;7.736;2023-11-19T11:14:24;1.85;;;1.65;;
44985;SDS011;30721;49.380;7.736;2023-11-19T11:16:50;3.03;;;1.20;;
44985;SDS011;30721;49.380;7.736;2023-11-19T11:19:16;3.15;;;1.90;;
44985;SDS011;30721;49.380;7.736;2023-11-19T11:21:44;4.07;;;2.53;;
44985;SDS011;30721;49.380;7.736;2023-11-19T11:37:44;2.28;;;1.65;;
44985;SDS011;30721;49.380;7.736;2023-11-19T11:40:16;2.38;;;1.27;;
44985;SDS011;30721;49.380;7.736;2023-11-19T11:42:43;1.85;;;1.45;;
44985;SDS011;30721;49.380;7.736;2023-11-19T11:45:09;2.03;;;0.95;;
44985;SDS011;30721;49.380;7.736;2023-11-19T11:53:22;3.85;;;1.17;;
44985;SDS011;30721;49.380;7.736;2023-11-19T11:55:28;1.92;;;0.95;;
44985;SDS011;30721;49.380;7.736;2023-11-19T11:58:01;4.07;;;2.50;;
44985;SDS011;30721;49.380;7.736;2023-11-19T12:00:29;3.33;;;1.08;;
44985;SDS011;30721;49.380;7.736;2023-11-19T12:02:59;2.45;;;0.82;;
44985;SDS011;30721;49.380;7.736;2023-11-19T12:05:25;3.55;;;0.77;;
44985;SDS011;30721;49.380;7.736;2023-11-19T12:07:54;2.90;;;0.80;;
44985;SDS011;30721;49.380;7.736;2023-11-19T12:10:20;2.85;;;1.90;;
44985;SDS011;30721;49.380;7.736;2023-11-19T12:12:47;2.17;;;1.25;;
44985;SDS011;30721;49.380;7.736;2023-11-19T12:15:12;3.00;;;0.82;;
44985;SDS011;30721;49.380;7.736;2023-11-19T12:17:43;2.33;;;0.60;;
44985;SDS011;30721;49.380;7.736;2023-11-19T12:20:17;5.70;;;2.63;;
44985;SDS011;30721;49.380;7.736;2023-11-19T12:22:44;3.42;;;1.90;;
44985;SDS011;30721;49.380;7.736;2023-11-19T12:25:11;2.78;;;1.70;;
44985;SDS011;30721;49.380;7.736;2023-11-19T12:27:44;2.15;;;0.93;;
44985;SDS011;30721;49.380;7.736;2023-11-19T12:30:11;2.40;;;0.80;;
44985;SDS011;30721;49.380;7.736;2023-11-19T12:35:05;2.50;;;0.80;;
44985;SDS011;30721;49.380;7.736;2023-11-19T12:37:31;3.78;;;0.80;;
44985;SDS011;30721;49.380;7.736;2023-11-19T12:39:57;2.72;;;1.13;;
44985;SDS011;30721;49.380;7.736;2023-11-19T12:42:38;2.72;;;0.98;;
44985;SDS011;30721;49.380;7.736;2023-11-19T12:45:04;3.17;;;1.60;;
44985;SDS011;30721;49.380;7.736;2023-11-19T12:47:30;2.75;;;0.60;;
44985;SDS011;30721;49.380;7.736;2023-11-19T12:49:59;4.40;;;1.05;;
44985;SDS011;30721;49.380;7.736;2023-11-19T12:52:24;2.35;;;0.80;;
44985;SDS011;30721;49.380;7.736;2023-11-19T12:54:50;2.47;;;0.80;;
44985;SDS011;30721;49.380;7.736;2023-11-19T12:57:16;1.45;;;0.68;;
44985;SDS011;30721;49.380;7.736;2023-11-19T12:59:43;6.07;;;1.77;;
44985;SDS011;30721;49.380;7.736;2023-11-19T13:02:20;3.47;;;1.23;;
44985;SDS011;30721;49.380;7.736;2023-11-19T13:04:46;1.38;;;0.82;;
44985;SDS011;30721;49.380;7.736;2023-11-19T13:07:11;2.33;;;0.80;;
44985;SDS011;30721;49.380;7.736;2023-11-19T13:09:36;2.50;;;0.93;;
44985;SDS011;30721;49.380;7.736;2023-11-19T13:12:11;2.03;;;0.63;;
44985;SDS011;30721;49.380;7.736;2023-11-19T13:14:39;3.03;;;0.70;;
44985;SDS011;30721;49.380;7.736;2023-11-19T13:17:05;3.67;;;0.73;;
44985;SDS011;30721;49.380;7.736;2023-11-19T13:19:30;2.50;;;0.80;;
44985;SDS011;30721;49.380;7.736;2023-11-19T13:21:56;2.30;;;0.70;;
44985;SDS011;30721;49.380;7.736;2023-11-19T13:24:21;3.25;;;1.00;;
44985;SDS011;30721;49.380;7.736;2023-11-19T13:26:46;2.10;;;0.80;;
44985;SDS011;30721;49.380;7.736;2023-11-19T13:29:12;1.10;;;0.70;;
44985;SDS011;30721;49.380;7.736;2023-11-19T13:31:37;4.43;;;1.00;;
44985;SDS011;30721;49.380;7.736;2023-11-19T13:34:03;2.70;;;0.77;;
44985;SDS011;30721;49.380;7.736;2023-11-19T13:36:28;2.53;;;0.70;;
44985;SDS011;30721;49.380;7.736;2023-11-19T13:38:54;2.10;;;0.80;;
44985;SDS011;30721;49.380;7.736;2023-11-19T13:41:24;1.63;;;0.73;;
44985;SDS011;30721;49.380;7.736;2023-11-19T13:43:50;3.58;;;1.10;;
44985;SDS011;30721;49.380;7.736;2023-11-19T13:46:16;2.78;;;0.70;;
44985;SDS011;30721;49.380;7.736;2023-11-19T13:48:41;3.95;;;0.95;;
44985;SDS011;30721;49.380;7.736;2023-11-19T13:51:07;3.10;;;1.17;;
44985;SDS011;30721;49.380;7.736;2023-11-19T13:53:32;2.50;;;0.70;;
44985;SDS011;30721;49.380;7.736;2023-11-19T13:55:58;2.45;;;0.88;;
44985;SDS011;30721;49.380;7.736;2023-11-19T13:58:23;3.58;;;0.98;;
44985;SDS011;30721;49.380;7.736;2023-11-19T14:00:49;2.13;;;0.70;;
44985;SDS011;30721;49.380;7.736;2023-11-19T14:03:15;3.63;;;0.80;;
44985;SDS011;30721;49.380;7.736;2023-11-19T14:05:41;2.72;;;1.30;;
44985;SDS011;30721;49.380;7.736;2023-11-19T14:08:09;2.58;;;0.93;;
44985;SDS011;30721;49.380;7.736;2023-11-19T14:10:38;1.60;;;0.80;;
44985;SDS011;30721;49.380;7.736;2023-11-19T14:13:05;2.80;;;0.98;;
44985;SDS011;30721;49.380;7.736;2023-11-19T14:15:33;1.27;;;0.80;;
44985;SDS011;30721;49.380;7.736;2023-11-19T14:17:59;5.28;;;0.77;;
44985;SDS011;30721;49.380;7.736;2023-11-19T14:20:24;2.88;;;0.98;;
44985;SDS011;30721;49.380;7.736;2023-11-19T14:22:50;2.63;;;0.60;;
44985;SDS011;30721;49.380;7.736;2023-11-19T14:25:17;1.98;;;0.75;;
44985;SDS011;30721;49.380;7.736;2023-11-19T14:27:43;3.65;;;0.93;;
44985;SDS011;30721;49.380;7.736;2023-11-19T14:30:10;3.47;;;0.70;;
44985;SDS011;30721;49.380;7.736;2023-11-19T14:32:37;2.38;;;0.77;;
44985;SDS011;30721;49.380;7.736;2023-11-19T14:35:03;2.35;;;0.60;;
44985;SDS011;30721;49.380;7.736;2023-11-19T14:37:29;2.67;;;1.08;;
44985;SDS011;30721;49.380;7.736;2023-11-19T14:39:57;3.03;;;1.10;;
44985;SDS011;30721;49.380;7.736;2023-11-19T14:42:23;2.65;;;0.77;;
44985;SDS011;30721;49.380;7.736;2023-11-19T14:44:53;3.88;;;0.85;;
44985;SDS011;30721;49.380;7.736;2023-11-19T14:47:22;4.18;;;0.77;;
44985;SDS011;30721;49.380;7.736;2023-11-19T14:49:47;2.97;;;0.70;;
44985;SDS011;30721;49.380;7.736;2023-11-19T14:52:13;2.85;;;1.50;;
44985;SDS011;30721;49.380;7.736;2023-11-19T14:54:39;2.70;;;0.70;;
44985;SDS011;30721;49.380;7.736;2023-11-19T14:57:05;2.92;;;1.10;;
44985;SDS011;30721;49.380;7.736;2023-11-19T14:59:31;3.42;;;0.80;;
44985;SDS011;30721;49.380;7.736;2023-11-19T15:01:58;3.38;;;0.85;;
44985;SDS011;30721;49.380;7.736;2023-11-19T15:04:23;3.47;;;1.02;;
44985;SDS011;30721;49.380;7.736;2023-11-19T15:06:49;2.60;;;0.70;;